LDZALATI

Guest
Details From LDZA - Zagreb
To LATI - Tirana Rinas
Flight Number -
Tags generated
Created
Modified
Stats Distance 307 nm / 569 km
Max Altitude 35,000 ft / 10,668 m
Waypoints 7
Social Downloads 1
Likes 0
Share VATSIM

Download

Looking for another format? Having issues loading an existing format? Contact us
Advertisement - Login to hide

Notes

Basic altitude profile: - Ascent Rate: 2500ft/min - Ascent Speed: 250kts - Cruise Altitude: 35000ft - Cruise Speed: 420kts - Descent Rate: 1500ft/min - Descent Speed: 250kts Options: - Use NATs: yes - Use PACOTS: yes - Use low airways: yes - Use high airways: yes

Route

LDZA MARIL L608 BOSNA UL604 GAC G16 PERAN LATI

ID Type Via Altitude Latitude Longitude Leg Dist Tot Dist Heading (true) Name
O LDZA APT - 0 ft / 0 m 45.74189˚ 16.06720˚ - 0 nm - Zagreb
MARIL FIX - 29,500 ft / 8,992 m 44.63333˚ 17.33333˚ 85 nm 85 nm 141° / 142° -
BOSNA FIX L608 (AWY-LO) 27,500 ft / 8,382 m 44.37056˚ 17.75972˚ 24 nm 109 nm 131° / 131° -
GILUK FIX UL604 (AWY-HI) 35,000 ft / 10,668 m 43.86593˚ 18.10468˚ 33 nm 143 nm 154° / 154° -
GAC NDB UL604 (AWY-HI) 29,000 ft / 8,839 m 43.14280˚ 18.55808˚ 47 nm 191 nm 155° / 156° GACKO NDB
PERAN FIX G16 (AWY-LO) 23,100 ft / 7,041 m 43.03250˚ 18.66583˚ 8 nm 199 nm 144° / 145° -
O LATI APT - 0 ft / 0 m 41.41473˚ 19.72057˚ 107 nm 307 nm 154° / 155° Tirana Rinas

Altitude Profile

Advertisement - Login to hide

Weather


0- 5 10 15 20 25 30 35+ Temperature / ° C

Clouds and Precipitation
Forecast for 2017-12-14 18:00 UTC. Updated 10 minutes ago

Ground ~20,000 ft ~40,000 ft Winds

LDZA

Details ICAO LDZA (ZAG)
Name Zagreb
Region Croatia
Timezone Europe/Zagreb (UTC+1.0)
Stats Elevation 353 ft / 108 m (AMSL)
Location 45.741890° 16.067200°
Runways 1
Magnetic Variation 3.959° E

METAR

LDZA 141530Z 20009KT 170V240 9999 BKN047 12/05 Q1005 NOSIG

Decode

TAF

TAF AMD LDZA 141236Z 1412/1512 23015KT 9999 SCT040 TX14/1413Z TN06/1423Z TEMPO 1412/1416 23025G35KT PROB30 TEMPO 1419/1500 RA PROB40 TEMPO 1422/1512 23015G25KT PROB30 TEMPO 1505/1510 25025G35KT

Decode

Departure Runways

ID Width Length Bearing (true) Bearing (mag) Surface Threshold Offset Overrun Length
05 148 ft / 45 m 10,659 ft / 3,249 m 46.69° 42.73° Asphalt 0 ft / 0 m 195 ft / 59 m
23 148 ft / 45 m 10,659 ft / 3,249 m 226.71° 222.75° Asphalt 0 ft / 0 m 195 ft / 59 m

LATI

Details ICAO LATI (TIA)
Name Tirana Rinas
Region Albania
Timezone Europe/Tirane (UTC+1.0)
Stats Elevation 126 ft / 38 m (AMSL)
Location 41.414732° 19.720569°
Runways 1
Magnetic Variation 4.232° E

METAR

LATI 141520Z 16003KT 9999 OVC055 12/06 Q1016 NOSIG

Decode

TAF

TAF LATI 141100Z 1412/1512 17008KT 9999 SCT040 BKN060 TX15/1412Z TN07/1505Z BECMG 1510/1512 18014KT

Decode

Destination Runways

ID Width Length Bearing (true) Bearing (mag) Surface Threshold Offset Overrun Length
18 148 ft / 45 m 8,984 ft / 2,738 m 174.31° 170.08° Asphalt 500 ft / 152 m 0 ft / 0 m
36 148 ft / 45 m 8,984 ft / 2,738 m 354.31° 350.08° Asphalt 500 ft / 152 m 0 ft / 0 m